sensor_id;sensor_type;location;lat;lon;timestamp;P1;durP1;ratioP1;P2;durP2;ratioP2
39654;SDS011;25336;59.944;11.010;2023-07-22T00:00:43;0.98;;;0.98;;
39654;SDS011;25336;59.944;11.010;2023-07-22T00:03:09;2.63;;;1.20;;
39654;SDS011;25336;59.944;11.010;2023-07-22T00:05:34;1.42;;;1.20;;
39654;SDS011;25336;59.944;11.010;2023-07-22T00:08:00;1.80;;;1.50;;
39654;SDS011;25336;59.944;11.010;2023-07-22T00:10:26;1.90;;;1.63;;
39654;SDS011;25336;59.944;11.010;2023-07-22T00:12:51;2.67;;;1.88;;
39654;SDS011;25336;59.944;11.010;2023-07-22T00:15:17;2.30;;;2.10;;
39654;SDS011;25336;59.944;11.010;2023-07-22T00:17:45;5.63;;;2.03;;
39654;SDS011;25336;59.944;11.010;2023-07-22T00:20:11;2.00;;;1.80;;
39654;SDS011;25336;59.944;11.010;2023-07-22T00:22:40;2.42;;;1.90;;
39654;SDS011;25336;59.944;11.010;2023-07-22T00:25:10;3.03;;;1.90;;
39654;SDS011;25336;59.944;11.010;2023-07-22T00:27:36;2.92;;;2.28;;
39654;SDS011;25336;59.944;11.010;2023-07-22T00:30:04;4.60;;;2.30;;
39654;SDS011;25336;59.944;11.010;2023-07-22T00:32:31;2.47;;;1.90;;
39654;SDS011;25336;59.944;11.010;2023-07-22T00:34:56;2.40;;;2.05;;
39654;SDS011;25336;59.944;11.010;2023-07-22T00:37:22;2.33;;;1.90;;
39654;SDS011;25336;59.944;11.010;2023-07-22T00:39:48;2.17;;;2.00;;
39654;SDS011;25336;59.944;11.010;2023-07-22T00:42:13;2.28;;;1.80;;
39654;SDS011;25336;59.944;11.010;2023-07-22T00:44:39;3.15;;;2.25;;
39654;SDS011;25336;59.944;11.010;2023-07-22T00:47:05;1.58;;;1.48;;
39654;SDS011;25336;59.944;11.010;2023-07-22T00:49:31;1.65;;;1.45;;
39654;SDS011;25336;59.944;11.010;2023-07-22T00:51:58;3.35;;;1.90;;
39654;SDS011;25336;59.944;11.010;2023-07-22T00:54:27;1.42;;;1.33;;
39654;SDS011;25336;59.944;11.010;2023-07-22T00:56:54;2.05;;;1.40;;
39654;SDS011;25336;59.944;11.010;2023-07-22T00:59:21;1.75;;;1.30;;
39654;SDS011;25336;59.944;11.010;2023-07-22T01:01:47;2.45;;;1.70;;
39654;SDS011;25336;59.944;11.010;2023-07-22T01:04:13;3.58;;;1.10;;
39654;SDS011;25336;59.944;11.010;2023-07-22T01:06:40;3.50;;;1.45;;
39654;SDS011;25336;59.944;11.010;2023-07-22T01:09:08;1.92;;;1.50;;
39654;SDS011;25336;59.944;11.010;2023-07-22T01:11:34;1.38;;;1.27;;
39654;SDS011;25336;59.944;11.010;2023-07-22T01:14:00;3.08;;;1.15;;
39654;SDS011;25336;59.944;11.010;2023-07-22T01:16:27;1.50;;;1.10;;
39654;SDS011;25336;59.944;11.010;2023-07-22T01:18:53;1.30;;;1.20;;
39654;SDS011;25336;59.944;11.010;2023-07-22T01:21:21;4.93;;;2.38;;
39654;SDS011;25336;59.944;11.010;2023-07-22T01:23:48;1.63;;;1.33;;
39654;SDS011;25336;59.944;11.010;2023-07-22T01:26:14;3.30;;;1.80;;
39654;SDS011;25336;59.944;11.010;2023-07-22T01:28:40;1.95;;;1.27;;
39654;SDS011;25336;59.944;11.010;2023-07-22T01:31:05;3.80;;;1.30;;
39654;SDS011;25336;59.944;11.010;2023-07-22T01:33:31;2.53;;;1.20;;
39654;SDS011;25336;59.944;11.010;2023-07-22T01:35:58;1.90;;;1.40;;
39654;SDS011;25336;59.944;11.010;2023-07-22T01:38:25;3.72;;;1.30;;
39654;SDS011;25336;59.944;11.010;2023-07-22T01:40:52;1.48;;;1.20;;
39654;SDS011;25336;59.944;11.010;2023-07-22T01:43:18;1.88;;;1.30;;
39654;SDS011;25336;59.944;11.010;2023-07-22T01:45:43;1.20;;;1.10;;
39654;SDS011;25336;59.944;11.010;2023-07-22T01:48:09;2.85;;;1.15;;
39654;SDS011;25336;59.944;11.010;2023-07-22T01:50:34;2.30;;;1.27;;
39654;SDS011;25336;59.944;11.010;2023-07-22T01:53:00;2.95;;;1.23;;
39654;SDS011;25336;59.944;11.010;2023-07-22T01:55:26;1.75;;;1.27;;
39654;SDS011;25336;59.944;11.010;2023-07-22T01:57:51;2.00;;;1.10;;
39654;SDS011;25336;59.944;11.010;2023-07-22T02:00:17;1.20;;;1.10;;
39654;SDS011;25336;59.944;11.010;2023-07-22T02:02:42;1.77;;;1.40;;
39654;SDS011;25336;59.944;11.010;2023-07-22T02:05:09;4.18;;;1.33;;
39654;SDS011;25336;59.944;11.010;2023-07-22T02:07:37;1.95;;;1.30;;
39654;SDS011;25336;59.944;11.010;2023-07-22T02:10:03;1.25;;;1.08;;
39654;SDS011;25336;59.944;11.010;2023-07-22T02:12:30;1.88;;;1.27;;
39654;SDS011;25336;59.944;11.010;2023-07-22T02:14:56;2.22;;;0.93;;
39654;SDS011;25336;59.944;11.010;2023-07-22T02:17:21;3.95;;;1.10;;
39654;SDS011;25336;59.944;11.010;2023-07-22T02:19:48;5.05;;;1.48;;
39654;SDS011;25336;59.944;11.010;2023-07-22T02:22:14;1.20;;;1.00;;
39654;SDS011;25336;59.944;11.010;2023-07-22T02:24:40;5.88;;;1.20;;
39654;SDS011;25336;59.944;11.010;2023-07-22T02:27:05;3.25;;;1.10;;
39654;SDS011;25336;59.944;11.010;2023-07-22T02:29:33;1.77;;;1.67;;
39654;SDS011;25336;59.944;11.010;2023-07-22T02:31:59;4.45;;;1.35;;
39654;SDS011;25336;59.944;11.010;2023-07-22T02:34:24;1.15;;;0.95;;
39654;SDS011;25336;59.944;11.010;2023-07-22T02:36:50;2.05;;;1.00;;
39654;SDS011;25336;59.944;11.010;2023-07-22T02:39:16;3.50;;;1.10;;
39654;SDS011;25336;59.944;11.010;2023-07-22T02:41:41;5.32;;;1.30;;
39654;SDS011;25336;59.944;11.010;2023-07-22T02:44:07;1.25;;;1.15;;
39654;SDS011;25336;59.944;11.010;2023-07-22T02:46:33;1.58;;;1.13;;
39654;SDS011;25336;59.944;11.010;2023-07-22T02:48:58;2.30;;;1.40;;
39654;SDS011;25336;59.944;11.010;2023-07-22T02:51:24;1.40;;;1.30;;
39654;SDS011;25336;59.944;11.010;2023-07-22T02:53:50;1.33;;;1.20;;
39654;SDS011;25336;59.944;11.010;2023-07-22T02:56:15;2.60;;;1.40;;
39654;SDS011;25336;59.944;11.010;2023-07-22T02:58:41;1.25;;;1.10;;
39654;SDS011;25336;59.944;11.010;2023-07-22T03:01:07;1.40;;;1.13;;
39654;SDS011;25336;59.944;11.010;2023-07-22T03:03:34;3.17;;;1.20;;
39654;SDS011;25336;59.944;11.010;2023-07-22T03:06:00;1.60;;;0.98;;
39654;SDS011;25336;59.944;11.010;2023-07-22T03:08:27;2.00;;;1.10;;
39654;SDS011;25336;59.944;11.010;2023-07-22T03:10:53;1.33;;;0.90;;
39654;SDS011;25336;59.944;11.010;2023-07-22T03:13:18;2.83;;;1.10;;
39654;SDS011;25336;59.944;11.010;2023-07-22T03:15:44;2.60;;;1.40;;
39654;SDS011;25336;59.944;11.010;2023-07-22T03:18:10;3.05;;;1.20;;
39654;SDS011;25336;59.944;11.010;2023-07-22T03:20:36;1.48;;;1.20;;
39654;SDS011;25336;59.944;11.010;2023-07-22T03:23:03;2.47;;;1.10;;
39654;SDS011;25336;59.944;11.010;2023-07-22T03:25:29;3.75;;;1.05;;
39654;SDS011;25336;59.944;11.010;2023-07-22T03:27:55;4.82;;;1.27;;
39654;SDS011;25336;59.944;11.010;2023-07-22T03:30:21;3.20;;;1.80;;
39654;SDS011;25336;59.944;11.010;2023-07-22T03:32:48;4.95;;;2.38;;
39654;SDS011;25336;59.944;11.010;2023-07-22T03:35:15;2.95;;;1.63;;
39654;SDS011;25336;59.944;11.010;2023-07-22T03:37:42;3.95;;;1.75;;
39654;SDS011;25336;59.944;11.010;2023-07-22T03:40:08;2.60;;;1.17;;
39654;SDS011;25336;59.944;11.010;2023-07-22T03:42:55;9.60;;;1.45;;
39654;SDS011;25336;59.944;11.010;2023-07-22T03:45:22;1.25;;;1.15;;
39654;SDS011;25336;59.944;11.010;2023-07-22T03:47:52;2.22;;;1.23;;
39654;SDS011;25336;59.944;11.010;2023-07-22T03:50:21;1.92;;;1.48;;
39654;SDS011;25336;59.944;11.010;2023-07-22T03:52:47;6.63;;;1.77;;
39654;SDS011;25336;59.944;11.010;2023-07-22T03:55:13;3.30;;;1.40;;
39654;SDS011;25336;59.944;11.010;2023-07-22T03:57:38;6.20;;;1.20;;
39654;SDS011;25336;59.944;11.010;2023-07-22T04:00:05;12.55;;;1.70;;
39654;SDS011;25336;59.944;11.010;2023-07-22T04:02:34;9.00;;;1.63;;
39654;SDS011;25336;59.944;11.010;2023-07-22T04:05:00;2.13;;;1.25;;
39654;SDS011;25336;59.944;11.010;2023-07-22T04:07:26;4.00;;;1.60;;
39654;SDS011;25336;59.944;11.010;2023-07-22T04:09:51;8.60;;;1.70;;
39654;SDS011;25336;59.944;11.010;2023-07-22T04:12:17;7.18;;;1.73;;
39654;SDS011;25336;59.944;11.010;2023-07-22T04:14:43;17.95;;;1.70;;
39654;SDS011;25336;59.944;11.010;2023-07-22T04:17:09;3.30;;;1.20;;
39654;SDS011;25336;59.944;11.010;2023-07-22T04:19:34;6.78;;;1.55;;
39654;SDS011;25336;59.944;11.010;2023-07-22T04:22:01;13.57;;;1.88;;
39654;SDS011;25336;59.944;11.010;2023-07-22T04:24:29;26.08;;;1.70;;
39654;SDS011;25336;59.944;11.010;2023-07-22T04:26:56;11.85;;;2.28;;
39654;SDS011;25336;59.944;11.010;2023-07-22T04:29:22;8.18;;;1.70;;
39654;SDS011;25336;59.944;11.010;2023-07-22T04:31:47;19.30;;;2.10;;
39654;SDS011;25336;59.944;11.010;2023-07-22T04:34:13;10.07;;;2.20;;
39654;SDS011;25336;59.944;11.010;2023-07-22T04:36:39;8.07;;;2.00;;
39654;SDS011;25336;59.944;11.010;2023-07-22T04:39:04;13.25;;;3.05;;
39654;SDS011;25336;59.944;11.010;2023-07-22T04:41:30;13.77;;;2.17;;
39654;SDS011;25336;59.944;11.010;2023-07-22T04:43:56;12.15;;;2.15;;
39654;SDS011;25336;59.944;11.010;2023-07-22T04:46:23;4.95;;;2.30;;
39654;SDS011;25336;59.944;11.010;2023-07-22T04:48:54;16.77;;;2.75;;
39654;SDS011;25336;59.944;11.010;2023-07-22T04:51:20;11.32;;;2.67;;
39654;SDS011;25336;59.944;11.010;2023-07-22T04:53:45;7.75;;;1.85;;
39654;SDS011;25336;59.944;11.010;2023-07-22T04:56:11;11.43;;;2.75;;
39654;SDS011;25336;59.944;11.010;2023-07-22T04:58:37;21.67;;;4.00;;
39654;SDS011;25336;59.944;11.010;2023-07-22T05:01:03;7.03;;;1.90;;
39654;SDS011;25336;59.944;11.010;2023-07-22T05:03:29;9.25;;;2.47;;
39654;SDS011;25336;59.944;11.010;2023-07-22T05:05:55;9.95;;;2.95;;
39654;SDS011;25336;59.944;11.010;2023-07-22T05:08:22;7.43;;;2.95;;
39654;SDS011;25336;59.944;11.010;2023-07-22T05:10:48;7.07;;;2.28;;
39654;SDS011;25336;59.944;11.010;2023-07-22T05:13:14;7.15;;;2.35;;
39654;SDS011;25336;59.944;11.010;2023-07-22T05:15:39;5.03;;;1.70;;
39654;SDS011;25336;59.944;11.010;2023-07-22T05:18:05;4.85;;;1.73;;
39654;SDS011;25336;59.944;11.010;2023-07-22T05:20:30;12.02;;;2.95;;
39654;SDS011;25336;59.944;11.010;2023-07-22T05:22:56;2.58;;;1.60;;
39654;SDS011;25336;59.944;11.010;2023-07-22T05:25:22;3.63;;;2.00;;
39654;SDS011;25336;59.944;11.010;2023-07-22T05:27:49;5.47;;;2.25;;
39654;SDS011;25336;59.944;11.010;2023-07-22T05:30:14;2.42;;;1.70;;
39654;SDS011;25336;59.944;11.010;2023-07-22T05:32:40;5.65;;;2.25;;
39654;SDS011;25336;59.944;11.010;2023-07-22T05:35:06;5.65;;;1.98;;
39654;SDS011;25336;59.944;11.010;2023-07-22T05:37:31;3.83;;;1.40;;
39654;SDS011;25336;59.944;11.010;2023-07-22T05:39:57;3.80;;;1.83;;
39654;SDS011;25336;59.944;11.010;2023-07-22T05:42:23;1.58;;;1.48;;
39654;SDS011;25336;59.944;11.010;2023-07-22T05:44:49;4.10;;;1.25;;
39654;SDS011;25336;59.944;11.010;2023-07-22T05:47:14;4.00;;;1.75;;
39654;SDS011;25336;59.944;11.010;2023-07-22T05:49:40;2.10;;;1.58;;
39654;SDS011;25336;59.944;11.010;2023-07-22T05:52:06;4.47;;;1.27;;
39654;SDS011;25336;59.944;11.010;2023-07-22T05:54:32;1.77;;;1.30;;
39654;SDS011;25336;59.944;11.010;2023-07-22T05:56:57;2.38;;;1.38;;
39654;SDS011;25336;59.944;11.010;2023-07-22T05:59:23;23.88;;;2.03;;
39654;SDS011;25336;59.944;11.010;2023-07-22T06:01:49;1.83;;;1.20;;
39654;SDS011;25336;59.944;11.010;2023-07-22T06:04:15;3.13;;;1.40;;
39654;SDS011;25336;59.944;11.010;2023-07-22T06:06:41;1.67;;;1.10;;
39654;SDS011;25336;59.944;11.010;2023-07-22T06:09:07;1.58;;;1.33;;
39654;SDS011;25336;59.944;11.010;2023-07-22T06:11:32;2.40;;;0.70;;
39654;SDS011;25336;59.944;11.010;2023-07-22T06:13:58;1.15;;;1.05;;
39654;SDS011;25336;59.944;11.010;2023-07-22T06:16:23;1.80;;;0.90;;
39654;SDS011;25336;59.944;11.010;2023-07-22T06:18:49;1.63;;;0.93;;
39654;SDS011;25336;59.944;11.010;2023-07-22T06:21:15;2.20;;;1.20;;
39654;SDS011;25336;59.944;11.010;2023-07-22T06:23:41;2.13;;;1.10;;
39654;SDS011;25336;59.944;11.010;2023-07-22T06:26:07;1.77;;;1.10;;
39654;SDS011;25336;59.944;11.010;2023-07-22T06:28:32;3.13;;;0.90;;
39654;SDS011;25336;59.944;11.010;2023-07-22T06:30:58;1.38;;;0.90;;
39654;SDS011;25336;59.944;11.010;2023-07-22T06:33:23;2.05;;;1.00;;
39654;SDS011;25336;59.944;11.010;2023-07-22T06:35:49;3.15;;;1.00;;
39654;SDS011;25336;59.944;11.010;2023-07-22T06:38:15;3.35;;;1.02;;
39654;SDS011;25336;59.944;11.010;2023-07-22T06:40:40;0.88;;;0.88;;
39654;SDS011;25336;59.944;11.010;2023-07-22T06:43:06;1.35;;;0.77;;
39654;SDS011;25336;59.944;11.010;2023-07-22T06:45:32;0.73;;;0.73;;
39654;SDS011;25336;59.944;11.010;2023-07-22T06:47:58;1.25;;;1.13;;
39654;SDS011;25336;59.944;11.010;2023-07-22T06:50:24;1.70;;;1.20;;
39654;SDS011;25336;59.944;11.010;2023-07-22T06:52:49;1.02;;;0.60;;
39654;SDS011;25336;59.944;11.010;2023-07-22T06:55:15;1.02;;;0.80;;
39654;SDS011;25336;59.944;11.010;2023-07-22T06:57:41;0.77;;;0.77;;
39654;SDS011;25336;59.944;11.010;2023-07-22T07:00:07;0.57;;;0.57;;
39654;SDS011;25336;59.944;11.010;2023-07-22T07:02:34;1.13;;;0.70;;
39654;SDS011;25336;59.944;11.010;2023-07-22T07:05:01;1.30;;;0.70;;
39654;SDS011;25336;59.944;11.010;2023-07-22T07:07:27;0.75;;;0.75;;
39654;SDS011;25336;59.944;11.010;2023-07-22T07:09:53;1.45;;;0.70;;
39654;SDS011;25336;59.944;11.010;2023-07-22T07:12:18;0.63;;;0.60;;
39654;SDS011;25336;59.944;11.010;2023-07-22T07:14:44;0.85;;;0.80;;
39654;SDS011;25336;59.944;11.010;2023-07-22T07:17:09;0.68;;;0.60;;
39654;SDS011;25336;59.944;11.010;2023-07-22T07:19:35;0.95;;;0.68;;
39654;SDS011;25336;59.944;11.010;2023-07-22T07:22:01;0.77;;;0.68;;
39654;SDS011;25336;59.944;11.010;2023-07-22T07:24:26;0.70;;;0.60;;
39654;SDS011;25336;59.944;11.010;2023-07-22T07:26:52;0.73;;;0.70;;
39654;SDS011;25336;59.944;11.010;2023-07-22T07:29:18;0.70;;;0.70;;
39654;SDS011;25336;59.944;11.010;2023-07-22T07:31:44;0.68;;;0.68;;
39654;SDS011;25336;59.944;11.010;2023-07-22T07:34:09;0.52;;;0.52;;
39654;SDS011;25336;59.944;11.010;2023-07-22T07:36:35;1.02;;;1.00;;
39654;SDS011;25336;59.944;11.010;2023-07-22T07:39:00;0.80;;;0.80;;
39654;SDS011;25336;59.944;11.010;2023-07-22T07:41:27;0.73;;;0.63;;
39654;SDS011;25336;59.944;11.010;2023-07-22T07:43:53;0.93;;;0.82;;
39654;SDS011;25336;59.944;11.010;2023-07-22T07:48:50;1.98;;;1.00;;
39654;SDS011;25336;59.944;11.010;2023-07-22T07:51:18;1.88;;;1.02;;
39654;SDS011;25336;59.944;11.010;2023-07-22T07:53:45;1.13;;;1.02;;
39654;SDS011;25336;59.944;11.010;2023-07-22T07:56:14;3.65;;;1.00;;
39654;SDS011;25336;59.944;11.010;2023-07-22T07:58:41;1.05;;;0.70;;
39654;SDS011;25336;59.944;11.010;2023-07-22T08:01:07;0.85;;;0.85;;
39654;SDS011;25336;59.944;11.010;2023-07-22T08:03:33;0.90;;;0.90;;
39654;SDS011;25336;59.944;11.010;2023-07-22T08:06:00;1.00;;;0.80;;
39654;SDS011;25336;59.944;11.010;2023-07-22T08:08:26;0.95;;;0.80;;
39654;SDS011;25336;59.944;11.010;2023-07-22T08:11:13;1.95;;;0.77;;
39654;SDS011;25336;59.944;11.010;2023-07-22T08:13:38;1.80;;;1.27;;
39654;SDS011;25336;59.944;11.010;2023-07-22T08:16:05;0.77;;;0.77;;
39654;SDS011;25336;59.944;11.010;2023-07-22T08:18:33;1.70;;;0.80;;
39654;SDS011;25336;59.944;11.010;2023-07-22T08:20:59;0.70;;;0.70;;
39654;SDS011;25336;59.944;11.010;2023-07-22T08:23:25;0.73;;;0.73;;
39654;SDS011;25336;59.944;11.010;2023-07-22T08:25:51;0.73;;;0.70;;
39654;SDS011;25336;59.944;11.010;2023-07-22T08:28:17;1.25;;;0.73;;
39654;SDS011;25336;59.944;11.010;2023-07-22T08:30:43;1.00;;;0.90;;
39654;SDS011;25336;59.944;11.010;2023-07-22T08:33:09;0.70;;;0.70;;
39654;SDS011;25336;59.944;11.010;2023-07-22T08:35:39;0.70;;;0.70;;
39654;SDS011;25336;59.944;11.010;2023-07-22T08:38:05;0.70;;;0.70;;
39654;SDS011;25336;59.944;11.010;2023-07-22T08:40:34;0.63;;;0.63;;
39654;SDS011;25336;59.944;11.010;2023-07-22T08:43:05;0.60;;;0.60;;
39654;SDS011;25336;59.944;11.010;2023-07-22T08:45:35;1.13;;;0.70;;
39654;SDS011;25336;59.944;11.010;2023-07-22T08:48:02;0.93;;;0.93;;
39654;SDS011;25336;59.944;11.010;2023-07-22T08:50:44;0.60;;;0.60;;
39654;SDS011;25336;59.944;11.010;2023-07-22T08:53:12;1.67;;;1.30;;
39654;SDS011;25336;59.944;11.010;2023-07-22T08:55:38;1.08;;;0.98;;
39654;SDS011;25336;59.944;11.010;2023-07-22T08:58:09;1.83;;;0.90;;
39654;SDS011;25336;59.944;11.010;2023-07-22T09:00:36;0.85;;;0.70;;
39654;SDS011;25336;59.944;11.010;2023-07-22T09:03:03;1.85;;;0.70;;
39654;SDS011;25336;59.944;11.010;2023-07-22T09:05:30;0.55;;;0.55;;
39654;SDS011;25336;59.944;11.010;2023-07-22T09:07:58;0.50;;;0.50;;
39654;SDS011;25336;59.944;11.010;2023-07-22T09:10:24;3.80;;;0.70;;
39654;SDS011;25336;59.944;11.010;2023-07-22T09:12:52;1.27;;;0.50;;
39654;SDS011;25336;59.944;11.010;2023-07-22T09:15:17;1.15;;;0.50;;
39654;SDS011;25336;59.944;11.010;2023-07-22T09:17:43;1.48;;;0.90;;
39654;SDS011;25336;59.944;11.010;2023-07-22T09:20:11;0.95;;;0.70;;
39654;SDS011;25336;59.944;11.010;2023-07-22T09:22:42;1.02;;;0.93;;
39654;SDS011;25336;59.944;11.010;2023-07-22T09:27:47;0.50;;;0.50;;
39654;SDS011;25336;59.944;11.010;2023-07-22T09:32:47;0.73;;;0.70;;
39654;SDS011;25336;59.944;11.010;2023-07-22T09:35:13;0.60;;;0.50;;
39654;SDS011;25336;59.944;11.010;2023-07-22T09:37:39;0.63;;;0.50;;
39654;SDS011;25336;59.944;11.010;2023-07-22T09:40:20;0.70;;;0.70;;
39654;SDS011;25336;59.944;11.010;2023-07-22T09:45:22;0.50;;;0.50;;
39654;SDS011;25336;59.944;11.010;2023-07-22T09:47:50;1.08;;;0.50;;
39654;SDS011;25336;59.944;11.010;2023-07-22T09:50:20;0.98;;;0.68;;
39654;SDS011;25336;59.944;11.010;2023-07-22T09:52:48;1.17;;;0.50;;
39654;SDS011;25336;59.944;11.010;2023-07-22T09:55:22;0.82;;;0.75;;
39654;SDS011;25336;59.944;11.010;2023-07-22T09:57:54;0.90;;;0.65;;
39654;SDS011;25336;59.944;11.010;2023-07-22T10:00:22;0.95;;;0.52;;
39654;SDS011;25336;59.944;11.010;2023-07-22T10:02:51;0.60;;;0.60;;
39654;SDS011;25336;59.944;11.010;2023-07-22T10:05:17;0.75;;;0.68;;
39654;SDS011;25336;59.944;11.010;2023-07-22T10:07:45;0.63;;;0.52;;
39654;SDS011;25336;59.944;11.010;2023-07-22T10:10:14;2.35;;;0.70;;
39654;SDS011;25336;59.944;11.010;2023-07-22T10:12:42;0.90;;;0.70;;
39654;SDS011;25336;59.944;11.010;2023-07-22T10:15:09;0.60;;;0.60;;
39654;SDS011;25336;59.944;11.010;2023-07-22T10:17:37;1.17;;;0.70;;
39654;SDS011;25336;59.944;11.010;2023-07-22T10:20:04;1.08;;;0.60;;
39654;SDS011;25336;59.944;11.010;2023-07-22T10:22:35;0.60;;;0.50;;
39654;SDS011;25336;59.944;11.010;2023-07-22T10:25:05;0.82;;;0.82;;
39654;SDS011;25336;59.944;11.010;2023-07-22T10:27:32;0.47;;;0.35;;
39654;SDS011;25336;59.944;11.010;2023-07-22T10:29:59;0.60;;;0.60;;
39654;SDS011;25336;59.944;11.010;2023-07-22T10:32:31;1.27;;;0.50;;
39654;SDS011;25336;59.944;11.010;2023-07-22T10:35:01;2.13;;;1.00;;
39654;SDS011;25336;59.944;11.010;2023-07-22T10:37:32;0.50;;;0.50;;
39654;SDS011;25336;59.944;11.010;2023-07-22T10:40:01;0.50;;;0.50;;
39654;SDS011;25336;59.944;11.010;2023-07-22T10:42:52;0.47;;;0.47;;
39654;SDS011;25336;59.944;11.010;2023-07-22T10:48:05;0.35;;;0.35;;
39654;SDS011;25336;59.944;11.010;2023-07-22T10:50:39;0.50;;;0.50;;
39654;SDS011;25336;59.944;11.010;2023-07-22T10:53:19;0.50;;;0.50;;
39654;SDS011;25336;59.944;11.010;2023-07-22T10:56:02;1.98;;;1.27;;
39654;SDS011;25336;59.944;11.010;2023-07-22T11:01:21;1.13;;;0.60;;
39654;SDS011;25336;59.944;11.010;2023-07-22T11:06:56;0.50;;;0.50;;
39654;SDS011;25336;59.944;11.010;2023-07-22T11:14:25;0.70;;;0.50;;
39654;SDS011;25336;59.944;11.010;2023-07-22T11:16:51;2.20;;;0.40;;
39654;SDS011;25336;59.944;11.010;2023-07-22T11:19:21;0.50;;;0.40;;
39654;SDS011;25336;59.944;11.010;2023-07-22T11:21:49;0.30;;;0.30;;
39654;SDS011;25336;59.944;11.010;2023-07-22T11:24:17;0.98;;;0.80;;
39654;SDS011;25336;59.944;11.010;2023-07-22T11:26:43;0.60;;;0.40;;
39654;SDS011;25336;59.944;11.010;2023-07-22T11:29:10;0.50;;;0.50;;
39654;SDS011;25336;59.944;11.010;2023-07-22T11:31:37;0.50;;;0.50;;
39654;SDS011;25336;59.944;11.010;2023-07-22T11:34:14;0.20;;;0.20;;
39654;SDS011;25336;59.944;11.010;2023-07-22T11:36:41;0.30;;;0.30;;
39654;SDS011;25336;59.944;11.010;2023-07-22T11:39:14;2.95;;;0.50;;
39654;SDS011;25336;59.944;11.010;2023-07-22T11:41:42;0.28;;;0.28;;
39654;SDS011;25336;59.944;11.010;2023-07-22T11:44:08;2.17;;;0.60;;
39654;SDS011;25336;59.944;11.010;2023-07-22T11:46:52;1.55;;;0.70;;
39654;SDS011;25336;59.944;11.010;2023-07-22T11:49:24;0.70;;;0.65;;
39654;SDS011;25336;59.944;11.010;2023-07-22T11:52:02;0.70;;;0.63;;
39654;SDS011;25336;59.944;11.010;2023-07-22T11:54:30;1.05;;;0.90;;
39654;SDS011;25336;59.944;11.010;2023-07-22T11:57:08;1.75;;;1.00;;
39654;SDS011;25336;59.944;11.010;2023-07-22T11:59:46;3.08;;;0.90;;
39654;SDS011;25336;59.944;11.010;2023-07-22T12:02:14;1.15;;;0.80;;
39654;SDS011;25336;59.944;11.010;2023-07-22T12:04:44;2.38;;;0.70;;
39654;SDS011;25336;59.944;11.010;2023-07-22T12:07:25;1.90;;;0.75;;
39654;SDS011;25336;59.944;11.010;2023-07-22T12:09:51;3.90;;;1.17;;
39654;SDS011;25336;59.944;11.010;2023-07-22T12:12:18;0.88;;;0.60;;
39654;SDS011;25336;59.944;11.010;2023-07-22T12:14:44;1.23;;;0.77;;
39654;SDS011;25336;59.944;11.010;2023-07-22T12:17:10;1.95;;;1.08;;
39654;SDS011;25336;59.944;11.010;2023-07-22T12:19:38;0.98;;;0.77;;
39654;SDS011;25336;59.944;11.010;2023-07-22T12:22:15;1.42;;;0.80;;
39654;SDS011;25336;59.944;11.010;2023-07-22T12:24:41;2.13;;;0.95;;
39654;SDS011;25336;59.944;11.010;2023-07-22T12:27:06;0.90;;;0.90;;
39654;SDS011;25336;59.944;11.010;2023-07-22T12:29:32;1.35;;;0.70;;
39654;SDS011;25336;59.944;11.010;2023-07-22T12:31:58;0.85;;;0.70;;
39654;SDS011;25336;59.944;11.010;2023-07-22T12:34:23;1.83;;;0.90;;
39654;SDS011;25336;59.944;11.010;2023-07-22T12:36:49;1.60;;;0.90;;
39654;SDS011;25336;59.944;11.010;2023-07-22T12:39:15;2.58;;;0.90;;
39654;SDS011;25336;59.944;11.010;2023-07-22T12:41:40;1.27;;;0.90;;
39654;SDS011;25336;59.944;11.010;2023-07-22T12:44:06;1.25;;;0.65;;
39654;SDS011;25336;59.944;11.010;2023-07-22T12:46:32;1.75;;;0.80;;
39654;SDS011;25336;59.944;11.010;2023-07-22T12:48:57;1.98;;;1.02;;
39654;SDS011;25336;59.944;11.010;2023-07-22T12:51:23;1.15;;;1.00;;
39654;SDS011;25336;59.944;11.010;2023-07-22T12:53:49;4.93;;;0.85;;
39654;SDS011;25336;59.944;11.010;2023-07-22T12:56:14;1.02;;;0.80;;
39654;SDS011;25336;59.944;11.010;2023-07-22T12:58:40;4.53;;;0.93;;
39654;SDS011;25336;59.944;11.010;2023-07-22T13:01:06;1.38;;;0.90;;
39654;SDS011;25336;59.944;11.010;2023-07-22T13:03:32;2.00;;;0.88;;
39654;SDS011;25336;59.944;11.010;2023-07-22T13:05:58;1.13;;;0.77;;
39654;SDS011;25336;59.944;11.010;2023-07-22T13:08:24;2.83;;;1.00;;
39654;SDS011;25336;59.944;11.010;2023-07-22T13:10:49;5.10;;;1.83;;
39654;SDS011;25336;59.944;11.010;2023-07-22T13:13:15;1.15;;;0.88;;
39654;SDS011;25336;59.944;11.010;2023-07-22T13:15:40;1.23;;;0.90;;
39654;SDS011;25336;59.944;11.010;2023-07-22T13:18:06;2.92;;;1.10;;
39654;SDS011;25336;59.944;11.010;2023-07-22T13:20:32;2.30;;;1.20;;
39654;SDS011;25336;59.944;11.010;2023-07-22T13:22:58;1.52;;;1.08;;
39654;SDS011;25336;59.944;11.010;2023-07-22T13:25:23;2.30;;;1.17;;
39654;SDS011;25336;59.944;11.010;2023-07-22T13:27:49;4.55;;;1.70;;
39654;SDS011;25336;59.944;11.010;2023-07-22T13:30:15;1.85;;;1.30;;
39654;SDS011;25336;59.944;11.010;2023-07-22T13:32:41;3.13;;;1.58;;
39654;SDS011;25336;59.944;11.010;2023-07-22T13:35:07;2.50;;;1.10;;
39654;SDS011;25336;59.944;11.010;2023-07-22T13:37:34;1.95;;;1.08;;
39654;SDS011;25336;59.944;11.010;2023-07-22T13:39:59;2.60;;;1.00;;
39654;SDS011;25336;59.944;11.010;2023-07-22T13:42:25;1.35;;;0.88;;
39654;SDS011;25336;59.944;11.010;2023-07-22T13:44:51;3.80;;;1.65;;
39654;SDS011;25336;59.944;11.010;2023-07-22T13:47:16;2.28;;;1.35;;
39654;SDS011;25336;59.944;11.010;2023-07-22T13:49:42;1.63;;;0.80;;
39654;SDS011;25336;59.944;11.010;2023-07-22T13:52:07;2.72;;;1.52;;
39654;SDS011;25336;59.944;11.010;2023-07-22T13:54:33;2.85;;;1.40;;
39654;SDS011;25336;59.944;11.010;2023-07-22T13:56:59;1.85;;;1.20;;
39654;SDS011;25336;59.944;11.010;2023-07-22T13:59:24;1.20;;;1.10;;
39654;SDS011;25336;59.944;11.010;2023-07-22T14:01:50;2.70;;;0.90;;
39654;SDS011;25336;59.944;11.010;2023-07-22T14:04:15;2.22;;;1.20;;
39654;SDS011;25336;59.944;11.010;2023-07-22T14:06:41;3.75;;;1.20;;
39654;SDS011;25336;59.944;11.010;2023-07-22T14:09:07;1.63;;;1.05;;
39654;SDS011;25336;59.944;11.010;2023-07-22T14:11:32;1.27;;;0.95;;
39654;SDS011;25336;59.944;11.010;2023-07-22T14:13:58;1.45;;;1.00;;
39654;SDS011;25336;59.944;11.010;2023-07-22T14:16:24;1.95;;;0.98;;
39654;SDS011;25336;59.944;11.010;2023-07-22T14:18:49;1.90;;;1.00;;
39654;SDS011;25336;59.944;11.010;2023-07-22T14:21:16;1.25;;;1.10;;
39654;SDS011;25336;59.944;11.010;2023-07-22T14:23:42;1.30;;;0.93;;
39654;SDS011;25336;59.944;11.010;2023-07-22T14:26:08;1.10;;;1.00;;
39654;SDS011;25336;59.944;11.010;2023-07-22T14:28:34;1.45;;;1.10;;
39654;SDS011;25336;59.944;11.010;2023-07-22T14:31:00;1.88;;;0.75;;
39654;SDS011;25336;59.944;11.010;2023-07-22T14:33:25;1.80;;;0.82;;
39654;SDS011;25336;59.944;11.010;2023-07-22T14:35:51;1.10;;;0.90;;
39654;SDS011;25336;59.944;11.010;2023-07-22T14:38:17;2.97;;;1.02;;
39654;SDS011;25336;59.944;11.010;2023-07-22T14:40:43;0.93;;;0.73;;
39654;SDS011;25336;59.944;11.010;2023-07-22T14:43:08;1.02;;;0.80;;
39654;SDS011;25336;59.944;11.010;2023-07-22T14:45:34;1.45;;;0.80;;
39654;SDS011;25336;59.944;11.010;2023-07-22T14:47:59;1.10;;;0.70;;
39654;SDS011;25336;59.944;11.010;2023-07-22T14:50:25;2.38;;;0.80;;
39654;SDS011;25336;59.944;11.010;2023-07-22T14:52:51;0.98;;;0.80;;
39654;SDS011;25336;59.944;11.010;2023-07-22T14:55:16;1.40;;;0.77;;